sensor_id;sensor_type;location;lat;lon;timestamp;P1;durP1;ratioP1;P2;durP2;ratioP2
58553;SDS011;48119;53.218;6.576;2023-12-20T00:01:24;14.15;;;3.97;;
58553;SDS011;48119;53.218;6.576;2023-12-20T00:03:49;8.68;;;2.47;;
58553;SDS011;48119;53.218;6.576;2023-12-20T00:06:15;11.50;;;3.17;;
58553;SDS011;48119;53.218;6.576;2023-12-20T00:08:41;10.43;;;3.70;;
58553;SDS011;48119;53.218;6.576;2023-12-20T00:11:06;13.38;;;2.88;;
58553;SDS011;48119;53.218;6.576;2023-12-20T00:13:32;11.55;;;3.28;;
58553;SDS011;48119;53.218;6.576;2023-12-20T00:15:58;12.05;;;2.95;;
58553;SDS011;48119;53.218;6.576;2023-12-20T00:18:24;15.23;;;2.63;;
58553;SDS011;48119;53.218;6.576;2023-12-20T00:20:49;11.13;;;2.65;;
58553;SDS011;48119;53.218;6.576;2023-12-20T00:23:15;8.85;;;2.45;;
58553;SDS011;48119;53.218;6.576;2023-12-20T00:25:41;12.68;;;3.05;;
58553;SDS011;48119;53.218;6.576;2023-12-20T00:28:07;12.43;;;2.75;;
58553;SDS011;48119;53.218;6.576;2023-12-20T00:30:33;10.95;;;2.63;;
58553;SDS011;48119;53.218;6.576;2023-12-20T00:32:58;15.82;;;3.63;;
58553;SDS011;48119;53.218;6.576;2023-12-20T00:35:24;10.82;;;2.95;;
58553;SDS011;48119;53.218;6.576;2023-12-20T00:37:52;5.47;;;2.47;;
58553;SDS011;48119;53.218;6.576;2023-12-20T00:40:18;17.30;;;4.38;;
58553;SDS011;48119;53.218;6.576;2023-12-20T00:42:43;11.80;;;2.33;;
58553;SDS011;48119;53.218;6.576;2023-12-20T00:45:09;10.45;;;2.90;;
58553;SDS011;48119;53.218;6.576;2023-12-20T00:47:35;14.40;;;3.28;;
58553;SDS011;48119;53.218;6.576;2023-12-20T00:50:00;11.32;;;2.80;;
58553;SDS011;48119;53.218;6.576;2023-12-20T00:52:26;7.63;;;2.20;;
58553;SDS011;48119;53.218;6.576;2023-12-20T00:54:52;14.20;;;2.58;;
58553;SDS011;48119;53.218;6.576;2023-12-20T00:57:18;10.70;;;2.72;;
58553;SDS011;48119;53.218;6.576;2023-12-20T00:59:43;9.63;;;2.13;;
58553;SDS011;48119;53.218;6.576;2023-12-20T01:02:09;14.48;;;3.22;;
58553;SDS011;48119;53.218;6.576;2023-12-20T01:04:35;13.85;;;3.00;;
58553;SDS011;48119;53.218;6.576;2023-12-20T01:07:01;12.40;;;2.30;;
58553;SDS011;48119;53.218;6.576;2023-12-20T01:09:27;14.57;;;3.17;;
58553;SDS011;48119;53.218;6.576;2023-12-20T01:11:53;14.32;;;2.85;;
58553;SDS011;48119;53.218;6.576;2023-12-20T01:14:19;6.63;;;2.38;;
58553;SDS011;48119;53.218;6.576;2023-12-20T01:16:44;14.80;;;3.08;;
58553;SDS011;48119;53.218;6.576;2023-12-20T01:19:10;16.15;;;2.83;;
58553;SDS011;48119;53.218;6.576;2023-12-20T01:21:36;14.90;;;3.03;;
58553;SDS011;48119;53.218;6.576;2023-12-20T01:24:02;13.65;;;3.00;;
58553;SDS011;48119;53.218;6.576;2023-12-20T01:26:28;16.15;;;3.72;;
58553;SDS011;48119;53.218;6.576;2023-12-20T01:28:53;11.05;;;2.90;;
58553;SDS011;48119;53.218;6.576;2023-12-20T01:31:19;13.20;;;3.00;;
58553;SDS011;48119;53.218;6.576;2023-12-20T01:33:45;9.07;;;3.35;;
58553;SDS011;48119;53.218;6.576;2023-12-20T01:36:11;13.57;;;3.83;;
58553;SDS011;48119;53.218;6.576;2023-12-20T01:38:37;14.35;;;3.45;;
58553;SDS011;48119;53.218;6.576;2023-12-20T01:41:03;14.77;;;3.05;;
58553;SDS011;48119;53.218;6.576;2023-12-20T01:43:29;14.05;;;3.65;;
58553;SDS011;48119;53.218;6.576;2023-12-20T01:45:58;14.25;;;4.38;;
58553;SDS011;48119;53.218;6.576;2023-12-20T01:48:25;14.85;;;3.92;;
58553;SDS011;48119;53.218;6.576;2023-12-20T01:50:52;14.65;;;3.33;;
58553;SDS011;48119;53.218;6.576;2023-12-20T01:53:19;17.15;;;3.85;;
58553;SDS011;48119;53.218;6.576;2023-12-20T01:55:46;16.00;;;4.57;;
58553;SDS011;48119;53.218;6.576;2023-12-20T01:58:14;9.77;;;3.13;;
58553;SDS011;48119;53.218;6.576;2023-12-20T02:00:40;9.82;;;3.50;;
58553;SDS011;48119;53.218;6.576;2023-12-20T02:03:06;10.75;;;3.35;;
58553;SDS011;48119;53.218;6.576;2023-12-20T02:05:34;10.23;;;3.72;;
58553;SDS011;48119;53.218;6.576;2023-12-20T02:08:00;7.07;;;2.90;;
58553;SDS011;48119;53.218;6.576;2023-12-20T02:10:26;10.18;;;3.13;;
58553;SDS011;48119;53.218;6.576;2023-12-20T02:12:52;15.60;;;4.57;;
58553;SDS011;48119;53.218;6.576;2023-12-20T02:15:18;11.77;;;4.20;;
58553;SDS011;48119;53.218;6.576;2023-12-20T02:17:45;14.70;;;4.10;;
58553;SDS011;48119;53.218;6.576;2023-12-20T02:20:12;17.63;;;5.50;;
58553;SDS011;48119;53.218;6.576;2023-12-20T02:22:38;11.98;;;3.45;;
58553;SDS011;48119;53.218;6.576;2023-12-20T02:25:03;10.60;;;3.58;;
58553;SDS011;48119;53.218;6.576;2023-12-20T02:27:30;14.95;;;4.68;;
58553;SDS011;48119;53.218;6.576;2023-12-20T02:29:56;11.00;;;2.65;;
58553;SDS011;48119;53.218;6.576;2023-12-20T02:32:22;12.88;;;3.22;;
58553;SDS011;48119;53.218;6.576;2023-12-20T02:34:51;9.50;;;2.63;;
58553;SDS011;48119;53.218;6.576;2023-12-20T02:37:17;10.43;;;2.78;;
58553;SDS011;48119;53.218;6.576;2023-12-20T02:39:42;17.17;;;3.83;;
58553;SDS011;48119;53.218;6.576;2023-12-20T02:42:08;12.18;;;3.45;;
58553;SDS011;48119;53.218;6.576;2023-12-20T02:44:34;16.85;;;4.05;;
58553;SDS011;48119;53.218;6.576;2023-12-20T02:47:00;12.73;;;3.45;;
58553;SDS011;48119;53.218;6.576;2023-12-20T02:49:25;16.05;;;4.18;;
58553;SDS011;48119;53.218;6.576;2023-12-20T02:51:51;17.80;;;4.65;;
58553;SDS011;48119;53.218;6.576;2023-12-20T02:54:17;13.10;;;3.83;;
58553;SDS011;48119;53.218;6.576;2023-12-20T02:56:42;14.90;;;4.35;;
58553;SDS011;48119;53.218;6.576;2023-12-20T02:59:08;15.27;;;3.90;;
58553;SDS011;48119;53.218;6.576;2023-12-20T03:01:34;18.00;;;5.03;;
58553;SDS011;48119;53.218;6.576;2023-12-20T03:04:06;15.00;;;4.43;;
58553;SDS011;48119;53.218;6.576;2023-12-20T03:06:32;20.48;;;4.50;;
58553;SDS011;48119;53.218;6.576;2023-12-20T03:08:57;14.63;;;3.88;;
58553;SDS011;48119;53.218;6.576;2023-12-20T03:11:26;15.13;;;3.83;;
58553;SDS011;48119;53.218;6.576;2023-12-20T03:13:52;22.42;;;5.10;;
58553;SDS011;48119;53.218;6.576;2023-12-20T03:16:18;20.15;;;4.45;;
58553;SDS011;48119;53.218;6.576;2023-12-20T03:18:44;25.65;;;4.80;;
58553;SDS011;48119;53.218;6.576;2023-12-20T03:21:09;23.70;;;5.15;;
58553;SDS011;48119;53.218;6.576;2023-12-20T03:23:35;22.92;;;4.53;;
58553;SDS011;48119;53.218;6.576;2023-12-20T03:26:01;16.95;;;4.90;;
58553;SDS011;48119;53.218;6.576;2023-12-20T03:28:27;26.70;;;4.93;;
58553;SDS011;48119;53.218;6.576;2023-12-20T03:30:53;18.73;;;4.90;;
58553;SDS011;48119;53.218;6.576;2023-12-20T03:33:18;14.50;;;4.13;;
58553;SDS011;48119;53.218;6.576;2023-12-20T03:35:44;19.98;;;5.82;;
58553;SDS011;48119;53.218;6.576;2023-12-20T03:38:10;16.73;;;4.82;;
58553;SDS011;48119;53.218;6.576;2023-12-20T03:40:36;19.42;;;4.20;;
58553;SDS011;48119;53.218;6.576;2023-12-20T03:43:01;21.25;;;4.75;;
58553;SDS011;48119;53.218;6.576;2023-12-20T03:45:27;15.52;;;3.88;;
58553;SDS011;48119;53.218;6.576;2023-12-20T03:47:53;20.98;;;5.88;;
58553;SDS011;48119;53.218;6.576;2023-12-20T03:50:23;21.35;;;4.72;;
58553;SDS011;48119;53.218;6.576;2023-12-20T03:52:49;20.08;;;4.85;;
58553;SDS011;48119;53.218;6.576;2023-12-20T03:55:15;20.33;;;5.53;;
58553;SDS011;48119;53.218;6.576;2023-12-20T03:57:40;20.88;;;6.13;;
58553;SDS011;48119;53.218;6.576;2023-12-20T04:00:09;17.85;;;5.38;;
58553;SDS011;48119;53.218;6.576;2023-12-20T04:02:39;20.50;;;5.28;;
58553;SDS011;48119;53.218;6.576;2023-12-20T04:05:05;23.60;;;5.45;;
58553;SDS011;48119;53.218;6.576;2023-12-20T04:07:34;20.13;;;5.40;;
58553;SDS011;48119;53.218;6.576;2023-12-20T04:10:00;22.17;;;5.35;;
58553;SDS011;48119;53.218;6.576;2023-12-20T04:12:30;22.15;;;4.97;;
58553;SDS011;48119;53.218;6.576;2023-12-20T04:14:56;24.98;;;5.68;;
58553;SDS011;48119;53.218;6.576;2023-12-20T04:17:22;19.85;;;4.90;;
58553;SDS011;48119;53.218;6.576;2023-12-20T04:19:51;28.20;;;5.15;;
58553;SDS011;48119;53.218;6.576;2023-12-20T04:22:17;22.58;;;5.10;;
58553;SDS011;48119;53.218;6.576;2023-12-20T04:24:44;18.73;;;5.97;;
58553;SDS011;48119;53.218;6.576;2023-12-20T04:27:10;19.98;;;4.53;;
58553;SDS011;48119;53.218;6.576;2023-12-20T04:29:36;20.27;;;4.55;;
58553;SDS011;48119;53.218;6.576;2023-12-20T04:32:04;24.02;;;4.93;;
58553;SDS011;48119;53.218;6.576;2023-12-20T04:34:30;24.85;;;5.32;;
58553;SDS011;48119;53.218;6.576;2023-12-20T04:36:55;24.38;;;5.07;;
58553;SDS011;48119;53.218;6.576;2023-12-20T04:39:21;22.65;;;5.13;;
58553;SDS011;48119;53.218;6.576;2023-12-20T04:41:47;17.00;;;5.13;;
58553;SDS011;48119;53.218;6.576;2023-12-20T04:44:16;21.42;;;5.63;;
58553;SDS011;48119;53.218;6.576;2023-12-20T04:46:42;26.30;;;6.32;;
58553;SDS011;48119;53.218;6.576;2023-12-20T04:49:07;16.35;;;5.32;;
58553;SDS011;48119;53.218;6.576;2023-12-20T04:51:33;29.15;;;5.07;;
58553;SDS011;48119;53.218;6.576;2023-12-20T04:53:59;17.98;;;4.57;;
58553;SDS011;48119;53.218;6.576;2023-12-20T04:56:25;21.23;;;7.00;;
58553;SDS011;48119;53.218;6.576;2023-12-20T04:58:51;22.67;;;5.78;;
58553;SDS011;48119;53.218;6.576;2023-12-20T05:01:17;15.85;;;5.05;;
58553;SDS011;48119;53.218;6.576;2023-12-20T05:03:43;16.13;;;4.57;;
58553;SDS011;48119;53.218;6.576;2023-12-20T05:06:09;21.77;;;5.47;;
58553;SDS011;48119;53.218;6.576;2023-12-20T05:08:35;20.08;;;4.70;;
58553;SDS011;48119;53.218;6.576;2023-12-20T05:11:01;22.55;;;6.95;;
58553;SDS011;48119;53.218;6.576;2023-12-20T05:13:27;18.80;;;4.28;;
58553;SDS011;48119;53.218;6.576;2023-12-20T05:15:52;21.98;;;5.18;;
58553;SDS011;48119;53.218;6.576;2023-12-20T05:18:18;25.23;;;5.82;;
58553;SDS011;48119;53.218;6.576;2023-12-20T05:20:45;22.50;;;5.43;;
58553;SDS011;48119;53.218;6.576;2023-12-20T05:23:11;24.10;;;5.03;;
58553;SDS011;48119;53.218;6.576;2023-12-20T05:25:38;22.88;;;5.90;;
58553;SDS011;48119;53.218;6.576;2023-12-20T05:28:04;21.83;;;4.90;;
58553;SDS011;48119;53.218;6.576;2023-12-20T05:30:30;20.42;;;5.65;;
58553;SDS011;48119;53.218;6.576;2023-12-20T05:32:56;28.88;;;6.45;;
58553;SDS011;48119;53.218;6.576;2023-12-20T05:35:21;25.40;;;5.30;;
58553;SDS011;48119;53.218;6.576;2023-12-20T05:37:48;26.80;;;5.75;;
58553;SDS011;48119;53.218;6.576;2023-12-20T05:40:15;20.08;;;4.55;;
58553;SDS011;48119;53.218;6.576;2023-12-20T05:42:42;21.80;;;4.88;;
58553;SDS011;48119;53.218;6.576;2023-12-20T05:45:08;22.05;;;4.63;;
58553;SDS011;48119;53.218;6.576;2023-12-20T05:47:34;26.17;;;5.93;;
58553;SDS011;48119;53.218;6.576;2023-12-20T05:50:00;23.17;;;4.68;;
58553;SDS011;48119;53.218;6.576;2023-12-20T05:52:26;19.83;;;5.75;;
58553;SDS011;48119;53.218;6.576;2023-12-20T05:54:51;17.00;;;4.47;;
58553;SDS011;48119;53.218;6.576;2023-12-20T05:57:17;28.67;;;6.10;;
58553;SDS011;48119;53.218;6.576;2023-12-20T05:59:46;23.13;;;4.57;;
58553;SDS011;48119;53.218;6.576;2023-12-20T06:02:12;22.15;;;4.95;;
58553;SDS011;48119;53.218;6.576;2023-12-20T06:04:37;18.95;;;4.90;;
58553;SDS011;48119;53.218;6.576;2023-12-20T06:07:08;18.90;;;4.90;;
58553;SDS011;48119;53.218;6.576;2023-12-20T06:09:37;20.85;;;7.82;;
58553;SDS011;48119;53.218;6.576;2023-12-20T06:12:02;27.95;;;6.18;;
58553;SDS011;48119;53.218;6.576;2023-12-20T06:14:28;17.58;;;5.03;;
58553;SDS011;48119;53.218;6.576;2023-12-20T06:16:55;16.80;;;5.72;;
58553;SDS011;48119;53.218;6.576;2023-12-20T06:19:22;23.88;;;6.93;;
58553;SDS011;48119;53.218;6.576;2023-12-20T06:21:47;20.23;;;5.57;;
58553;SDS011;48119;53.218;6.576;2023-12-20T06:24:13;23.77;;;6.47;;
58553;SDS011;48119;53.218;6.576;2023-12-20T06:26:39;17.25;;;5.72;;
58553;SDS011;48119;53.218;6.576;2023-12-20T06:29:05;22.85;;;6.03;;
58553;SDS011;48119;53.218;6.576;2023-12-20T06:31:30;27.50;;;5.93;;
58553;SDS011;48119;53.218;6.576;2023-12-20T06:33:58;21.27;;;6.32;;
58553;SDS011;48119;53.218;6.576;2023-12-20T06:36:25;16.02;;;5.53;;
58553;SDS011;48119;53.218;6.576;2023-12-20T06:38:53;27.70;;;6.18;;
58553;SDS011;48119;53.218;6.576;2023-12-20T06:41:19;24.77;;;5.40;;
58553;SDS011;48119;53.218;6.576;2023-12-20T06:43:45;21.23;;;5.45;;
58553;SDS011;48119;53.218;6.576;2023-12-20T06:46:12;27.15;;;5.50;;
58553;SDS011;48119;53.218;6.576;2023-12-20T06:48:38;19.42;;;5.00;;
58553;SDS011;48119;53.218;6.576;2023-12-20T06:51:05;31.85;;;5.30;;
58553;SDS011;48119;53.218;6.576;2023-12-20T06:53:36;19.15;;;5.55;;
58553;SDS011;48119;53.218;6.576;2023-12-20T06:56:01;21.77;;;5.63;;
58553;SDS011;48119;53.218;6.576;2023-12-20T06:58:27;19.95;;;6.38;;
58553;SDS011;48119;53.218;6.576;2023-12-20T07:00:53;20.67;;;6.18;;
58553;SDS011;48119;53.218;6.576;2023-12-20T07:03:19;22.00;;;6.28;;
58553;SDS011;48119;53.218;6.576;2023-12-20T07:05:44;23.33;;;5.40;;
58553;SDS011;48119;53.218;6.576;2023-12-20T07:08:11;23.63;;;6.80;;
58553;SDS011;48119;53.218;6.576;2023-12-20T07:10:39;17.95;;;6.03;;
58553;SDS011;48119;53.218;6.576;2023-12-20T07:13:05;21.15;;;5.47;;
58553;SDS011;48119;53.218;6.576;2023-12-20T07:15:31;22.98;;;6.07;;
58553;SDS011;48119;53.218;6.576;2023-12-20T07:17:59;25.05;;;5.18;;
58553;SDS011;48119;53.218;6.576;2023-12-20T07:20:26;18.10;;;4.95;;
58553;SDS011;48119;53.218;6.576;2023-12-20T07:22:51;24.55;;;5.90;;
58553;SDS011;48119;53.218;6.576;2023-12-20T07:25:17;29.20;;;5.30;;
58553;SDS011;48119;53.218;6.576;2023-12-20T07:27:43;19.63;;;6.10;;
58553;SDS011;48119;53.218;6.576;2023-12-20T07:30:08;22.45;;;5.95;;
58553;SDS011;48119;53.218;6.576;2023-12-20T07:32:35;26.15;;;6.07;;
58553;SDS011;48119;53.218;6.576;2023-12-20T07:35:01;20.05;;;5.07;;
58553;SDS011;48119;53.218;6.576;2023-12-20T07:37:28;17.75;;;5.00;;
58553;SDS011;48119;53.218;6.576;2023-12-20T07:39:53;22.92;;;5.57;;
58553;SDS011;48119;53.218;6.576;2023-12-20T07:42:19;17.92;;;5.03;;
58553;SDS011;48119;53.218;6.576;2023-12-20T07:44:47;20.83;;;5.60;;
58553;SDS011;48119;53.218;6.576;2023-12-20T07:47:12;28.52;;;5.50;;
58553;SDS011;48119;53.218;6.576;2023-12-20T07:49:42;30.80;;;6.53;;
58553;SDS011;48119;53.218;6.576;2023-12-20T07:52:08;31.27;;;6.10;;
58553;SDS011;48119;53.218;6.576;2023-12-20T07:54:33;21.77;;;5.68;;
58553;SDS011;48119;53.218;6.576;2023-12-20T07:56:59;22.40;;;5.97;;
58553;SDS011;48119;53.218;6.576;2023-12-20T07:59:25;15.25;;;4.88;;
58553;SDS011;48119;53.218;6.576;2023-12-20T08:01:51;18.67;;;5.32;;
58553;SDS011;48119;53.218;6.576;2023-12-20T08:04:16;12.52;;;4.72;;
58553;SDS011;48119;53.218;6.576;2023-12-20T08:06:42;22.05;;;5.30;;
58553;SDS011;48119;53.218;6.576;2023-12-20T08:09:08;22.20;;;6.78;;
58553;SDS011;48119;53.218;6.576;2023-12-20T08:11:34;20.98;;;5.82;;
58553;SDS011;48119;53.218;6.576;2023-12-20T08:14:00;16.80;;;4.25;;
58553;SDS011;48119;53.218;6.576;2023-12-20T08:16:25;18.05;;;5.90;;
58553;SDS011;48119;53.218;6.576;2023-12-20T08:18:51;22.48;;;4.55;;
58553;SDS011;48119;53.218;6.576;2023-12-20T08:21:17;17.05;;;5.57;;
58553;SDS011;48119;53.218;6.576;2023-12-20T08:23:45;21.20;;;5.00;;
58553;SDS011;48119;53.218;6.576;2023-12-20T08:26:12;16.48;;;5.03;;
58553;SDS011;48119;53.218;6.576;2023-12-20T08:28:38;23.27;;;6.30;;
58553;SDS011;48119;53.218;6.576;2023-12-20T08:31:06;18.38;;;4.65;;
58553;SDS011;48119;53.218;6.576;2023-12-20T08:33:38;16.55;;;5.03;;
58553;SDS011;48119;53.218;6.576;2023-12-20T08:36:04;20.77;;;5.20;;
58553;SDS011;48119;53.218;6.576;2023-12-20T08:38:30;18.27;;;4.20;;
58553;SDS011;48119;53.218;6.576;2023-12-20T08:40:56;12.40;;;3.42;;
58553;SDS011;48119;53.218;6.576;2023-12-20T08:43:22;9.30;;;2.28;;
58553;SDS011;48119;53.218;6.576;2023-12-20T08:45:48;6.57;;;1.73;;
58553;SDS011;48119;53.218;6.576;2023-12-20T08:48:14;7.80;;;2.90;;
58553;SDS011;48119;53.218;6.576;2023-12-20T08:50:39;10.82;;;2.55;;
58553;SDS011;48119;53.218;6.576;2023-12-20T08:53:05;8.40;;;2.08;;
58553;SDS011;48119;53.218;6.576;2023-12-20T08:55:31;10.65;;;2.65;;
58553;SDS011;48119;53.218;6.576;2023-12-20T08:57:56;9.55;;;2.92;;
58553;SDS011;48119;53.218;6.576;2023-12-20T09:00:22;12.48;;;4.68;;
58553;SDS011;48119;53.218;6.576;2023-12-20T09:02:51;9.68;;;3.17;;
58553;SDS011;48119;53.218;6.576;2023-12-20T09:05:16;7.88;;;2.60;;
58553;SDS011;48119;53.218;6.576;2023-12-20T09:07:42;9.88;;;4.10;;
58553;SDS011;48119;53.218;6.576;2023-12-20T09:10:08;11.70;;;3.65;;
58553;SDS011;48119;53.218;6.576;2023-12-20T09:12:34;15.20;;;3.83;;
58553;SDS011;48119;53.218;6.576;2023-12-20T09:15:03;12.57;;;3.30;;
58553;SDS011;48119;53.218;6.576;2023-12-20T09:17:29;17.13;;;3.78;;
58553;SDS011;48119;53.218;6.576;2023-12-20T09:19:55;8.15;;;2.85;;
58553;SDS011;48119;53.218;6.576;2023-12-20T09:22:21;9.75;;;2.60;;
58553;SDS011;48119;53.218;6.576;2023-12-20T09:24:46;8.82;;;2.60;;
58553;SDS011;48119;53.218;6.576;2023-12-20T09:27:12;5.65;;;2.25;;
58553;SDS011;48119;53.218;6.576;2023-12-20T09:29:38;9.00;;;3.10;;
58553;SDS011;48119;53.218;6.576;2023-12-20T09:32:06;6.53;;;1.70;;
58553;SDS011;48119;53.218;6.576;2023-12-20T09:34:33;11.23;;;2.63;;
58553;SDS011;48119;53.218;6.576;2023-12-20T09:36:59;6.07;;;1.73;;
58553;SDS011;48119;53.218;6.576;2023-12-20T09:39:24;3.50;;;1.73;;
58553;SDS011;48119;53.218;6.576;2023-12-20T09:41:59;5.38;;;1.92;;
58553;SDS011;48119;53.218;6.576;2023-12-20T09:44:29;9.60;;;2.13;;
58553;SDS011;48119;53.218;6.576;2023-12-20T09:46:59;3.65;;;1.33;;
58553;SDS011;48119;53.218;6.576;2023-12-20T09:49:37;5.50;;;1.52;;
58553;SDS011;48119;53.218;6.576;2023-12-20T09:52:03;5.20;;;1.70;;
58553;SDS011;48119;53.218;6.576;2023-12-20T09:54:32;9.57;;;2.05;;
58553;SDS011;48119;53.218;6.576;2023-12-20T09:56:58;4.88;;;1.67;;
58553;SDS011;48119;53.218;6.576;2023-12-20T09:59:24;10.20;;;1.95;;
58553;SDS011;48119;53.218;6.576;2023-12-20T10:01:50;9.35;;;2.05;;
58553;SDS011;48119;53.218;6.576;2023-12-20T10:04:19;11.70;;;2.35;;
58553;SDS011;48119;53.218;6.576;2023-12-20T10:06:45;7.07;;;1.83;;
58553;SDS011;48119;53.218;6.576;2023-12-20T10:09:11;10.07;;;2.95;;
58553;SDS011;48119;53.218;6.576;2023-12-20T10:11:37;10.15;;;2.78;;
58553;SDS011;48119;53.218;6.576;2023-12-20T10:14:04;12.05;;;3.78;;
58553;SDS011;48119;53.218;6.576;2023-12-20T10:16:31;10.27;;;2.40;;
58553;SDS011;48119;53.218;6.576;2023-12-20T10:18:58;12.68;;;2.40;;
58553;SDS011;48119;53.218;6.576;2023-12-20T10:21:26;8.02;;;2.03;;
58553;SDS011;48119;53.218;6.576;2023-12-20T10:23:53;9.48;;;2.92;;
58553;SDS011;48119;53.218;6.576;2023-12-20T10:26:20;12.65;;;2.33;;
58553;SDS011;48119;53.218;6.576;2023-12-20T10:28:46;10.75;;;2.22;;
58553;SDS011;48119;53.218;6.576;2023-12-20T10:31:33;11.98;;;2.42;;
58553;SDS011;48119;53.218;6.576;2023-12-20T10:34:03;9.77;;;2.75;;
58553;SDS011;48119;53.218;6.576;2023-12-20T10:36:31;10.63;;;2.25;;
58553;SDS011;48119;53.218;6.576;2023-12-20T10:38:58;11.48;;;2.55;;
58553;SDS011;48119;53.218;6.576;2023-12-20T10:41:29;11.52;;;2.63;;
58553;SDS011;48119;53.218;6.576;2023-12-20T10:44:01;15.63;;;2.60;;
58553;SDS011;48119;53.218;6.576;2023-12-20T10:46:28;11.32;;;2.67;;
58553;SDS011;48119;53.218;6.576;2023-12-20T10:48:56;7.40;;;2.30;;
58553;SDS011;48119;53.218;6.576;2023-12-20T10:51:22;12.85;;;2.90;;
58553;SDS011;48119;53.218;6.576;2023-12-20T10:53:51;13.65;;;4.35;;
58553;SDS011;48119;53.218;6.576;2023-12-20T10:56:18;9.90;;;2.72;;
58553;SDS011;48119;53.218;6.576;2023-12-20T10:58:45;14.35;;;3.47;;
58553;SDS011;48119;53.218;6.576;2023-12-20T11:01:13;10.55;;;2.67;;
58553;SDS011;48119;53.218;6.576;2023-12-20T11:03:50;13.52;;;3.40;;
58553;SDS011;48119;53.218;6.576;2023-12-20T11:11:38;16.23;;;4.70;;
58553;SDS011;48119;53.218;6.576;2023-12-20T11:14:16;17.35;;;5.32;;
58553;SDS011;48119;53.218;6.576;2023-12-20T11:16:47;15.32;;;3.97;;
58553;SDS011;48119;53.218;6.576;2023-12-20T11:19:13;14.43;;;3.80;;
58553;SDS011;48119;53.218;6.576;2023-12-20T11:21:39;15.98;;;4.75;;
58553;SDS011;48119;53.218;6.576;2023-12-20T11:24:05;18.92;;;4.47;;
58553;SDS011;48119;53.218;6.576;2023-12-20T11:26:34;17.02;;;4.80;;
58553;SDS011;48119;53.218;6.576;2023-12-20T11:31:59;14.93;;;4.05;;
58553;SDS011;48119;53.218;6.576;2023-12-20T11:34:32;17.58;;;4.75;;
58553;SDS011;48119;53.218;6.576;2023-12-20T11:37:01;14.25;;;4.82;;
58553;SDS011;48119;53.218;6.576;2023-12-20T11:39:28;15.80;;;3.58;;
58553;SDS011;48119;53.218;6.576;2023-12-20T11:41:56;13.07;;;4.07;;
58553;SDS011;48119;53.218;6.576;2023-12-20T11:44:27;16.27;;;5.03;;
58553;SDS011;48119;53.218;6.576;2023-12-20T11:46:56;13.85;;;3.90;;
58553;SDS011;48119;53.218;6.576;2023-12-20T11:49:24;18.60;;;4.82;;
58553;SDS011;48119;53.218;6.576;2023-12-20T11:51:50;15.05;;;4.07;;
58553;SDS011;48119;53.218;6.576;2023-12-20T11:54:16;20.05;;;4.63;;
58553;SDS011;48119;53.218;6.576;2023-12-20T11:56:42;12.45;;;4.03;;
58553;SDS011;48119;53.218;6.576;2023-12-20T11:59:08;15.52;;;4.20;;
58553;SDS011;48119;53.218;6.576;2023-12-20T12:01:34;20.88;;;5.30;;
58553;SDS011;48119;53.218;6.576;2023-12-20T12:04:04;11.82;;;4.28;;
58553;SDS011;48119;53.218;6.576;2023-12-20T12:06:30;14.98;;;4.10;;
58553;SDS011;48119;53.218;6.576;2023-12-20T12:08:56;13.52;;;4.05;;
58553;SDS011;48119;53.218;6.576;2023-12-20T12:11:22;16.88;;;4.10;;
58553;SDS011;48119;53.218;6.576;2023-12-20T12:13:48;14.93;;;4.78;;
58553;SDS011;48119;53.218;6.576;2023-12-20T12:16:18;25.27;;;5.30;;
58553;SDS011;48119;53.218;6.576;2023-12-20T12:18:45;22.25;;;5.00;;
58553;SDS011;48119;53.218;6.576;2023-12-20T12:21:18;15.63;;;4.38;;
58553;SDS011;48119;53.218;6.576;2023-12-20T12:23:45;19.13;;;5.55;;
58553;SDS011;48119;53.218;6.576;2023-12-20T12:26:11;21.40;;;4.70;;
58553;SDS011;48119;53.218;6.576;2023-12-20T12:28:39;15.00;;;3.47;;
58553;SDS011;48119;53.218;6.576;2023-12-20T12:31:06;17.45;;;5.03;;
58553;SDS011;48119;53.218;6.576;2023-12-20T12:33:32;14.23;;;3.78;;
58553;SDS011;48119;53.218;6.576;2023-12-20T12:35:58;10.43;;;3.50;;
58553;SDS011;48119;53.218;6.576;2023-12-20T12:38:24;11.57;;;3.20;;
58553;SDS011;48119;53.218;6.576;2023-12-20T12:40:50;11.88;;;3.58;;
58553;SDS011;48119;53.218;6.576;2023-12-20T12:43:18;12.73;;;3.40;;
58553;SDS011;48119;53.218;6.576;2023-12-20T12:45:44;14.63;;;4.25;;
58553;SDS011;48119;53.218;6.576;2023-12-20T12:48:10;12.13;;;3.72;;
58553;SDS011;48119;53.218;6.576;2023-12-20T12:50:36;19.23;;;4.03;;
58553;SDS011;48119;53.218;6.576;2023-12-20T12:53:01;18.92;;;4.07;;
58553;SDS011;48119;53.218;6.576;2023-12-20T12:55:27;15.88;;;3.45;;
58553;SDS011;48119;53.218;6.576;2023-12-20T12:57:53;16.25;;;4.25;;
58553;SDS011;48119;53.218;6.576;2023-12-20T13:00:20;17.92;;;4.32;;
58553;SDS011;48119;53.218;6.576;2023-12-20T13:02:49;17.45;;;3.55;;
58553;SDS011;48119;53.218;6.576;2023-12-20T13:05:15;18.33;;;3.83;;
58553;SDS011;48119;53.218;6.576;2023-12-20T13:07:40;16.40;;;4.22;;
58553;SDS011;48119;53.218;6.576;2023-12-20T13:10:10;13.35;;;3.33;;
58553;SDS011;48119;53.218;6.576;2023-12-20T13:12:36;10.32;;;3.17;;
58553;SDS011;48119;53.218;6.576;2023-12-20T13:15:02;10.77;;;3.17;;
58553;SDS011;48119;53.218;6.576;2023-12-20T13:17:31;23.48;;;4.40;;
58553;SDS011;48119;53.218;6.576;2023-12-20T13:19:57;18.25;;;3.65;;
58553;SDS011;48119;53.218;6.576;2023-12-20T13:22:24;11.10;;;2.60;;
58553;SDS011;48119;53.218;6.576;2023-12-20T13:24:50;15.68;;;3.72;;
58553;SDS011;48119;53.218;6.576;2023-12-20T13:27:16;19.85;;;3.85;;
58553;SDS011;48119;53.218;6.576;2023-12-20T13:29:42;10.65;;;3.38;;
58553;SDS011;48119;53.218;6.576;2023-12-20T13:32:07;17.40;;;4.72;;
58553;SDS011;48119;53.218;6.576;2023-12-20T13:34:33;8.27;;;2.88;;
58553;SDS011;48119;53.218;6.576;2023-12-20T13:36:59;9.63;;;2.70;;
58553;SDS011;48119;53.218;6.576;2023-12-20T13:39:24;14.02;;;3.55;;
58553;SDS011;48119;53.218;6.576;2023-12-20T13:41:50;13.07;;;3.53;;
58553;SDS011;48119;53.218;6.576;2023-12-20T13:44:16;15.50;;;3.78;;
58553;SDS011;48119;53.218;6.576;2023-12-20T13:46:42;10.50;;;3.22;;
58553;SDS011;48119;53.218;6.576;2023-12-20T13:49:07;12.40;;;4.25;;
58553;SDS011;48119;53.218;6.576;2023-12-20T13:51:33;12.05;;;4.30;;
58553;SDS011;48119;53.218;6.576;2023-12-20T13:53:59;11.40;;;2.83;;
58553;SDS011;48119;53.218;6.576;2023-12-20T13:56:25;13.35;;;4.13;;
58553;SDS011;48119;53.218;6.576;2023-12-20T13:58:51;14.45;;;3.08;;
58553;SDS011;48119;53.218;6.576;2023-12-20T14:01:17;14.30;;;3.42;;
58553;SDS011;48119;53.218;6.576;2023-12-20T14:03:42;13.15;;;2.35;;
58553;SDS011;48119;53.218;6.576;2023-12-20T14:06:08;12.52;;;3.28;;
58553;SDS011;48119;53.218;6.576;2023-12-20T14:08:34;7.93;;;1.92;;
58553;SDS011;48119;53.218;6.576;2023-12-20T14:11:01;7.53;;;2.55;;
58553;SDS011;48119;53.218;6.576;2023-12-20T14:13:27;8.32;;;2.42;;
58553;SDS011;48119;53.218;6.576;2023-12-20T14:15:53;8.48;;;2.95;;
58553;SDS011;48119;53.218;6.576;2023-12-20T14:18:19;15.07;;;2.20;;
58553;SDS011;48119;53.218;6.576;2023-12-20T14:20:45;9.88;;;2.63;;
58553;SDS011;48119;53.218;6.576;2023-12-20T14:23:12;7.75;;;1.90;;
58553;SDS011;48119;53.218;6.576;2023-12-20T14:25:40;9.82;;;2.40;;
58553;SDS011;48119;53.218;6.576;2023-12-20T14:28:07;5.25;;;2.17;;
58553;SDS011;48119;53.218;6.576;2023-12-20T14:30:33;24.27;;;11.63;;
58553;SDS011;48119;53.218;6.576;2023-12-20T14:33:00;17.50;;;6.43;;
58553;SDS011;48119;53.218;6.576;2023-12-20T14:35:25;9.43;;;3.45;;
58553;SDS011;48119;53.218;6.576;2023-12-20T14:37:51;8.38;;;2.97;;
58553;SDS011;48119;53.218;6.576;2023-12-20T14:40:18;7.82;;;2.40;;